Time;durP1;ratioP1;P1;durP2;ratioP2;P2;SDS_P1;SDS_P2;PMS_P1;PMS_P2;Temp;Humidity;BMP_temperature;BMP_pressure;BME280_temperature;BME280_humidity;BME280_pressure;Samples;Min_cycle;Max_cycle;Signal;HPM_P1;HPM_P2
2021/05/08 00:02:00;;;;;;;3.78;1.90;;;3.90;97.50;;;;;;6212646;23;20009;-90
2021/05/08 00:04:26;;;;;;;5.32;1.73;;;3.90;97.60;;;;;;6213440;23;20417;-89
2021/05/08 00:06:52;;;;;;;4.07;1.98;;;3.90;97.80;;;;;;6215932;23;20012;-89
2021/05/08 00:09:18;;;;;;;2.78;1.85;;;3.80;98.10;;;;;;6215055;23;20001;-87
2021/05/08 00:11:44;;;;;;;4.97;2.10;;;3.80;98.60;;;;;;6216418;23;20023;-89
2021/05/08 00:14:10;;;;;;;4.35;1.70;;;3.80;98.50;;;;;;6214707;23;20027;-90
2021/05/08 00:16:36;;;;;;;4.38;1.85;;;3.70;98.50;;;;;;6215990;23;20004;-89
2021/05/08 00:19:02;;;;;;;4.30;1.90;;;3.70;98.70;;;;;;6216159;23;20012;-89
2021/05/08 00:21:28;;;;;;;4.25;2.17;;;3.70;98.90;;;;;;6218363;23;20030;-89
2021/05/08 00:23:54;;;;;;;2.50;1.75;;;3.70;99.10;;;;;;6223791;23;20062;-89
2021/05/08 00:26:19;;;;;;;2.30;1.80;;;3.70;99.30;;;;;;6223990;23;20004;-88
2021/05/08 00:28:45;;;;;;;7.13;1.77;;;3.60;99.40;;;;;;6226163;23;20375;-91
2021/05/08 00:31:11;;;;;;;1.83;1.55;;;3.70;99.60;;;;;;6225812;23;20009;-88
2021/05/08 00:33:37;;;;;;;7.30;2.10;;;3.60;99.70;;;;;;6224919;23;20020;-89
2021/05/08 00:36:03;;;;;;;2.80;1.70;;;3.60;99.80;;;;;;6198922;23;20090;-89
2021/05/08 00:38:30;;;;;;;4.38;1.60;;;3.60;99.90;;;;;;6216762;23;20006;-89
2021/05/08 00:40:57;;;;;;;4.03;1.73;;;3.60;99.90;;;;;;6215189;23;20076;-90
2021/05/08 00:43:23;;;;;;;2.70;1.58;;;3.60;99.90;;;;;;6215094;23;20072;-88
2021/05/08 00:45:48;;;;;;;3.17;1.73;;;3.60;99.90;;;;;;6216153;23;20040;-90
2021/05/08 00:48:14;;;;;;;5.20;2.05;;;3.60;99.90;;;;;;6214588;23;20016;-88
2021/05/08 00:50:40;;;;;;;6.00;1.98;;;3.60;99.90;;;;;;6216311;23;20066;-90
2021/05/08 00:53:08;;;;;;;4.00;1.80;;;3.50;99.90;;;;;;6222757;23;20012;-88
2021/05/08 00:55:39;;;;;;;7.78;2.42;;;3.50;99.90;;;;;;6220641;23;20004;-87
2021/05/08 00:58:07;;;;;;;7.63;1.65;;;3.50;99.90;;;;;;6221493;23;20016;-89
2021/05/08 01:00:34;;;;;;;3.30;1.77;;;3.40;99.90;;;;;;6223615;23;20332;-89
2021/05/08 01:03:01;;;;;;;7.57;2.38;;;3.40;99.90;;;;;;6223195;23;20440;-88
2021/05/08 01:05:31;;;;;;;8.77;1.70;;;3.40;99.90;;;;;;6223983;23;20344;-88
2021/05/08 01:07:57;;;;;;;2.80;1.85;;;3.50;99.90;;;;;;6217459;23;20001;-88
2021/05/08 01:10:24;;;;;;;3.22;1.85;;;3.50;99.90;;;;;;6213998;23;20313;-87
2021/05/08 01:12:51;;;;;;;4.40;1.95;;;3.50;99.90;;;;;;6214544;23;20021;-88
2021/05/08 01:15:16;;;;;;;6.60;2.92;;;3.50;99.90;;;;;;6214057;23;20019;-88
2021/05/08 01:17:47;;;;;;;3.33;1.80;;;3.40;99.90;;;;;;6214464;23;20005;-88
2021/05/08 01:20:17;;;;;;;5.35;1.80;;;3.40;99.90;;;;;;6214712;23;20367;-88
2021/05/08 01:22:44;;;;;;;8.40;2.13;;;3.40;99.90;;;;;;6218981;23;20420;-87
2021/05/08 01:25:15;;;;;;;4.63;1.75;;;3.40;99.90;;;;;;6218746;23;20009;-88
2021/05/08 01:27:46;;;;;;;4.47;1.52;;;3.40;99.90;;;;;;6217451;23;20005;-88
2021/05/08 01:30:18;;;;;;;4.38;1.85;;;3.40;99.90;;;;;;6220114;23;20012;-89
2021/05/08 01:32:45;;;;;;;6.43;1.83;;;3.40;99.90;;;;;;6216383;23;20017;-89
2021/05/08 01:35:11;;;;;;;3.80;1.85;;;3.40;99.90;;;;;;6215942;23;20005;-89
2021/05/08 01:37:37;;;;;;;4.05;1.75;;;3.40;99.90;;;;;;6215626;23;20045;-88
2021/05/08 01:40:10;;;;;;;3.60;1.90;;;3.30;99.90;;;;;;6214036;23;20055;-88
2021/05/08 01:42:38;;;;;;;3.50;1.65;;;3.40;99.90;;;;;;6213827;23;20055;-89
2021/05/08 01:45:12;;;;;;;14.07;1.95;;;3.40;99.90;;;;;;6214365;23;20003;-88
2021/05/08 01:47:42;;;;;;;3.38;1.75;;;3.40;99.90;;;;;;6215348;23;20012;-89
2021/05/08 01:50:12;;;;;;;3.97;1.97;;;3.40;99.90;;;;;;6195580;23;20048;-90
2021/05/08 01:52:38;;;;;;;7.32;1.67;;;3.40;99.90;;;;;;6219876;23;20017;-88
2021/05/08 01:55:13;;;;;;;6.47;1.85;;;3.40;99.90;;;;;;6222802;23;20009;-88
2021/05/08 01:57:58;;;;;;;4.68;2.03;;;3.40;99.90;;;;;;6220386;23;20004;-89
2021/05/08 02:00:36;;;;;;;6.18;1.65;;;3.40;99.90;;;;;;6221510;23;20011;-89
2021/05/08 02:03:02;;;;;;;3.00;1.70;;;3.40;99.90;;;;;;6220603;23;20008;-89
2021/05/08 02:05:33;;;;;;;2.83;1.60;;;3.50;99.90;;;;;;6214964;23;20013;-89
2021/05/08 02:08:03;;;;;;;3.42;1.85;;;3.50;99.90;;;;;;6215385;23;20000;-89
2021/05/08 02:10:30;;;;;;;3.75;1.38;;;3.50;99.90;;;;;;6215836;23;20115;-89
2021/05/08 02:13:00;;;;;;;6.50;2.13;;;3.50;99.90;;;;;;6214386;23;20013;-88
2021/05/08 02:15:26;;;;;;;8.20;1.75;;;3.50;99.90;;;;;;6216363;23;20003;-89
2021/05/08 02:17:51;;;;;;;4.10;1.60;;;3.50;99.90;;;;;;6215320;23;20036;-89
2021/05/08 02:20:25;;;;;;;9.93;1.85;;;3.50;99.90;;;;;;6216669;23;20474;-89
2021/05/08 02:22:52;;;;;;;5.82;1.60;;;3.50;99.90;;;;;;6215175;23;20005;-89
2021/05/08 02:25:18;;;;;;;9.18;2.22;;;3.50;99.90;;;;;;6216032;23;20013;-88
2021/05/08 02:27:44;;;;;;;6.13;2.75;;;3.50;99.90;;;;;;6215952;23;20000;-89
2021/05/08 02:30:15;;;;;;;9.23;2.80;;;3.40;99.90;;;;;;6216096;23;20005;-88
2021/05/08 02:32:41;;;;;;;6.78;2.80;;;3.40;99.90;;;;;;6215953;23;20485;-89
2021/05/08 02:35:09;;;;;;;7.80;2.83;;;3.30;99.90;;;;;;6222517;23;20016;-89
2021/05/08 02:37:39;;;;;;;7.32;3.05;;;3.40;99.90;;;;;;6235911;23;20012;-88
2021/05/08 02:40:08;;;;;;;7.73;2.73;;;3.40;99.90;;;;;;6237477;23;20069;-88
2021/05/08 02:42:36;;;;;;;5.82;2.83;;;3.40;99.90;;;;;;6237538;23;20370;-88
2021/05/08 02:45:09;;;;;;;6.95;2.78;;;3.40;99.90;;;;;;6224101;23;20000;-89
2021/05/08 02:47:38;;;;;;;6.07;2.67;;;3.40;99.90;;;;;;6223903;23;20515;-89
2021/05/08 02:50:12;;;;;;;7.35;3.38;;;3.40;99.90;;;;;;6215551;23;20459;-89
2021/05/08 02:52:38;;;;;;;7.97;2.75;;;3.40;99.90;;;;;;6216383;23;20009;-89
2021/05/08 02:55:05;;;;;;;6.10;2.75;;;3.40;99.90;;;;;;6216392;23;20004;-89
2021/05/08 02:57:31;;;;;;;9.65;4.07;;;3.40;99.90;;;;;;6216191;23;20004;-90
2021/05/08 02:59:56;;;;;;;6.82;2.75;;;3.40;99.90;;;;;;6216161;23;20491;-87
2021/05/08 03:02:22;;;;;;;4.78;2.38;;;3.40;99.90;;;;;;6214288;23;20063;-89
2021/05/08 03:04:48;;;;;;;4.88;2.33;;;3.40;99.90;;;;;;6218512;23;20001;-89
2021/05/08 03:07:14;;;;;;;6.25;2.45;;;3.40;99.90;;;;;;6217738;23;20094;-88
2021/05/08 03:09:42;;;;;;;6.45;2.47;;;3.40;99.90;;;;;;6191630;23;20008;-88
2021/05/08 03:12:08;;;;;;;5.22;2.30;;;3.40;99.90;;;;;;6218834;23;20009;-87
2021/05/08 03:14:36;;;;;;;4.10;2.30;;;3.40;99.90;;;;;;6220703;23;20012;-89
2021/05/08 03:17:14;;;;;;;7.57;3.58;;;3.40;99.90;;;;;;6220533;23;20008;-88
2021/05/08 03:19:40;;;;;;;8.25;2.70;;;3.40;99.90;;;;;;6217747;23;20009;-89
2021/05/08 03:22:07;;;;;;;9.20;2.63;;;3.40;99.90;;;;;;6214920;23;20032;-89
2021/05/08 03:24:35;;;;;;;5.65;2.30;;;3.50;99.90;;;;;;6214271;23;20004;-87
2021/05/08 03:27:01;;;;;;;5.63;2.42;;;3.50;99.90;;;;;;6215404;23;20004;-89
2021/05/08 03:29:27;;;;;;;9.07;2.13;;;3.60;99.90;;;;;;6213952;23;20335;-89
2021/05/08 03:31:53;;;;;;;6.03;2.28;;;3.60;99.90;;;;;;6215666;23;20083;-90
2021/05/08 03:34:18;;;;;;;4.68;2.83;;;3.60;99.90;;;;;;6214496;23;20087;-88
2021/05/08 03:36:44;;;;;;;6.10;2.88;;;3.60;99.90;;;;;;6215597;23;20043;-88
2021/05/08 03:39:11;;;;;;;3.10;2.28;;;3.60;99.90;;;;;;6216352;23;20008;-89
2021/05/08 03:41:36;;;;;;;5.35;2.85;;;3.60;99.90;;;;;;6216592;23;20301;-89
2021/05/08 03:44:02;;;;;;;6.05;2.78;;;3.60;99.90;;;;;;6216209;23;20015;-89
2021/05/08 03:46:28;;;;;;;10.88;3.00;;;3.70;99.90;;;;;;6215837;23;20015;-91
2021/05/08 03:48:53;;;;;;;3.30;2.38;;;3.60;99.90;;;;;;6216200;23;20547;-89
2021/05/08 03:51:23;;;;;;;6.47;3.20;;;3.70;99.90;;;;;;6217493;23;20004;-89
2021/05/08 03:53:49;;;;;;;5.20;2.75;;;3.60;99.90;;;;;;6217021;23;20082;-90
2021/05/08 03:56:15;;;;;;;4.10;2.97;;;3.70;99.90;;;;;;6215035;23;20083;-90
2021/05/08 03:58:41;;;;;;;6.80;2.97;;;3.60;99.90;;;;;;6214896;23;20473;-89
2021/05/08 04:01:07;;;;;;;3.95;2.50;;;3.60;99.90;;;;;;6215097;23;20044;-90
2021/05/08 04:03:43;;;;;;;5.68;2.67;;;3.60;99.90;;;;;;6216931;23;20063;-89
2021/05/08 04:06:10;;;;;;;3.75;2.70;;;3.60;99.90;;;;;;6223346;23;20011;-87
2021/05/08 04:08:37;;;;;;;8.55;2.50;;;3.60;99.90;;;;;;6223335;23;20013;-89
2021/05/08 04:11:03;;;;;;;5.93;3.70;;;3.70;99.90;;;;;;6220348;23;20765;-88
2021/05/08 04:13:29;;;;;;;4.70;2.25;;;3.70;99.90;;;;;;6220908;23;20016;-88
2021/05/08 04:15:56;;;;;;;5.68;2.45;;;3.80;99.90;;;;;;6222979;23;20004;-88
2021/05/08 04:18:24;;;;;;;10.13;2.60;;;3.80;99.90;;;;;;6222450;23;20005;-88
2021/05/08 04:20:50;;;;;;;12.30;4.00;;;3.90;99.90;;;;;;6215614;23;20088;-88
2021/05/08 04:23:16;;;;;;;6.72;2.83;;;4.00;99.90;;;;;;6189747;23;20372;-89
2021/05/08 04:25:41;;;;;;;5.47;2.80;;;4.20;99.90;;;;;;6216779;23;20040;-88
2021/05/08 04:28:11;;;;;;;6.25;2.55;;;4.20;99.90;;;;;;6216214;23;20007;-88
2021/05/08 04:30:37;;;;;;;5.88;2.60;;;4.20;99.90;;;;;;6189073;23;20048;-89
2021/05/08 04:33:04;;;;;;;5.57;2.58;;;4.20;99.90;;;;;;6214810;23;20024;-87
2021/05/08 04:35:30;;;;;;;6.47;2.70;;;4.20;99.90;;;;;;6221972;23;19996;-90
2021/05/08 04:38:04;;;;;;;5.20;2.78;;;4.20;99.90;;;;;;6222701;23;20475;-90
2021/05/08 04:40:30;;;;;;;7.75;2.95;;;4.20;99.90;;;;;;6225275;23;20024;-88
2021/05/08 04:42:56;;;;;;;4.82;2.38;;;4.30;99.90;;;;;;6226634;23;20012;-90
2021/05/08 04:45:25;;;;;;;5.35;2.30;;;4.40;99.90;;;;;;6226131;23;20031;-90
2021/05/08 04:47:56;;;;;;;8.82;3.10;;;4.50;99.90;;;;;;6228524;23;20158;-89
2021/05/08 04:50:24;;;;;;;8.18;2.70;;;4.60;99.90;;;;;;6220171;23;20001;-89
2021/05/08 04:52:50;;;;;;;7.90;2.97;;;4.70;99.90;;;;;;6214565;23;20016;-88
2021/05/08 04:55:16;;;;;;;4.55;2.80;;;4.70;99.90;;;;;;6215550;23;20012;-88
2021/05/08 04:57:41;;;;;;;6.50;3.00;;;4.70;99.90;;;;;;6214092;23;20051;-89
2021/05/08 05:00:09;;;;;;;5.60;2.97;;;4.80;99.90;;;;;;6215640;23;20044;-89
2021/05/08 05:02:35;;;;;;;7.15;3.50;;;4.80;99.90;;;;;;6214041;23;20005;-90
2021/05/08 05:05:02;;;;;;;5.85;2.85;;;4.90;99.90;;;;;;6189474;23;20012;-89
2021/05/08 05:07:28;;;;;;;6.82;2.65;;;4.90;99.90;;;;;;6189294;23;20091;-89
2021/05/08 05:09:54;;;;;;;5.35;3.03;;;4.90;99.90;;;;;;6216428;23;20009;-90
2021/05/08 05:12:20;;;;;;;11.23;3.70;;;4.90;99.90;;;;;;6214383;23;20044;-89
2021/05/08 05:14:45;;;;;;;6.85;3.10;;;4.90;99.90;;;;;;6214487;23;20008;-89
2021/05/08 05:17:11;;;;;;;7.63;3.00;;;5.00;99.90;;;;;;6216567;23;20009;-89
2021/05/08 05:19:36;;;;;;;7.55;3.38;;;5.00;99.90;;;;;;6218417;23;20001;-89
2021/05/08 05:22:02;;;;;;;8.20;4.18;;;5.10;99.90;;;;;;6226464;23;20065;-90
2021/05/08 05:24:28;;;;;;;8.60;3.88;;;5.10;99.90;;;;;;6226288;23;19997;-89
2021/05/08 05:26:53;;;;;;;9.00;3.92;;;5.10;99.90;;;;;;6224082;23;20092;-90
2021/05/08 05:29:19;;;;;;;7.90;3.83;;;5.20;99.90;;;;;;6226019;23;20009;-89
2021/05/08 05:31:45;;;;;;;6.95;4.10;;;5.20;99.90;;;;;;6224470;23;20008;-89
2021/05/08 05:34:10;;;;;;;12.35;4.25;;;5.20;99.90;;;;;;6223227;23;20095;-90
2021/05/08 05:36:36;;;;;;;10.20;3.70;;;5.20;99.90;;;;;;6213976;23;20008;-90
2021/05/08 05:39:02;;;;;;;10.05;4.10;;;5.20;99.90;;;;;;6214366;23;20005;-90
2021/05/08 05:41:28;;;;;;;8.80;4.13;;;5.20;99.90;;;;;;6214660;23;20072;-90
2021/05/08 05:43:54;;;;;;;8.85;5.10;;;5.30;99.90;;;;;;6215410;23;20011;-90
2021/05/08 05:46:19;;;;;;;9.10;3.85;;;5.30;99.90;;;;;;6215041;23;20032;-89
2021/05/08 05:48:45;;;;;;;12.93;4.05;;;5.30;99.90;;;;;;6214936;23;20004;-89
2021/05/08 05:51:12;;;;;;;10.68;4.47;;;5.30;99.90;;;;;;6189591;23;20379;-88
2021/05/08 05:53:37;;;;;;;10.00;4.03;;;5.30;99.90;;;;;;6214729;23;20048;-89
2021/05/08 05:56:03;;;;;;;15.02;4.32;;;5.30;99.90;;;;;;6214799;23;20005;-90
2021/05/08 05:58:29;;;;;;;11.45;4.03;;;5.30;99.90;;;;;;6214548;23;20344;-89
2021/05/08 06:00:56;;;;;;;11.13;4.38;;;5.30;99.90;;;;;;6214628;23;20107;-90
2021/05/08 06:03:24;;;;;;;7.75;4.03;;;5.30;99.90;;;;;;6214236;23;19997;-89
2021/05/08 06:05:49;;;;;;;14.07;4.70;;;5.30;99.90;;;;;;6215454;23;20005;-91
2021/05/08 06:08:15;;;;;;;10.15;4.78;;;5.30;99.90;;;;;;6213950;23;20000;-90
2021/05/08 06:10:41;;;;;;;11.27;5.00;;;5.30;99.90;;;;;;6216283;23;20043;-89
2021/05/08 06:13:06;;;;;;;9.05;4.55;;;5.30;99.90;;;;;;6214637;23;20016;-89
2021/05/08 06:15:32;;;;;;;10.13;4.57;;;5.30;99.90;;;;;;6214254;23;20008;-89
2021/05/08 06:17:58;;;;;;;11.45;5.07;;;5.30;99.90;;;;;;6215403;23;20335;-88
2021/05/08 06:20:23;;;;;;;10.70;5.28;;;5.30;99.90;;;;;;6214913;23;20004;-89
2021/05/08 06:22:50;;;;;;;8.82;5.35;;;5.30;99.90;;;;;;6218047;23;20099;-90
2021/05/08 06:25:16;;;;;;;8.07;5.35;;;5.30;99.90;;;;;;6218790;23;20007;-88
2021/05/08 06:27:41;;;;;;;14.48;5.78;;;5.20;99.90;;;;;;6220261;23;20008;-88
2021/05/08 06:30:08;;;;;;;14.38;6.03;;;5.20;99.90;;;;;;6221308;23;20007;-89
2021/05/08 06:32:35;;;;;;;11.52;5.57;;;5.20;99.90;;;;;;6217904;23;20031;-89
2021/05/08 06:35:00;;;;;;;14.88;5.70;;;5.20;99.90;;;;;;6219056;23;20467;-87
2021/05/08 06:37:26;;;;;;;9.25;5.10;;;5.20;99.90;;;;;;6212892;23;20099;-88
2021/05/08 06:39:52;;;;;;;10.65;4.75;;;5.20;99.90;;;;;;6213472;23;20008;-89
2021/05/08 06:42:17;;;;;;;12.00;4.55;;;5.20;99.90;;;;;;6215105;23;20377;-90
2021/05/08 06:44:43;;;;;;;9.60;5.00;;;5.30;99.90;;;;;;6213632;23;20008;-89
2021/05/08 06:47:14;;;;;;;9.20;5.25;;;5.30;99.90;;;;;;6213579;23;20074;-90
2021/05/08 06:49:43;;;;;;;7.72;4.13;;;5.30;99.90;;;;;;6213524;23;20044;-89
2021/05/08 06:52:10;;;;;;;7.43;4.35;;;5.30;99.90;;;;;;6218267;23;20070;-89
2021/05/08 06:54:36;;;;;;;9.50;4.93;;;5.20;99.90;;;;;;6217424;23;20016;-90
2021/05/08 06:57:02;;;;;;;8.80;4.85;;;5.20;99.90;;;;;;6218226;23;20005;-88
2021/05/08 06:59:29;;;;;;;8.13;4.75;;;5.20;99.90;;;;;;6220966;23;20091;-88
2021/05/08 07:01:56;;;;;;;7.15;4.85;;;5.20;99.90;;;;;;6221872;23;20020;-88
2021/05/08 07:04:22;;;;;;;8.55;5.18;;;5.20;99.90;;;;;;6221508;23;20031;-88
2021/05/08 07:06:47;;;;;;;6.95;4.35;;;5.20;99.90;;;;;;6214697;23;20308;-89
2021/05/08 07:09:13;;;;;;;6.65;4.47;;;5.20;99.90;;;;;;6212521;23;20055;-88
2021/05/08 07:11:39;;;;;;;9.68;4.28;;;5.20;99.90;;;;;;6212950;23;20542;-87
2021/05/08 07:14:04;;;;;;;8.93;4.30;;;5.20;99.90;;;;;;6213866;23;20428;-88
2021/05/08 07:16:30;;;;;;;7.97;4.68;;;5.10;99.90;;;;;;6214250;23;20004;-89
2021/05/08 07:18:56;;;;;;;13.02;4.88;;;5.10;99.90;;;;;;6217078;23;20016;-89
2021/05/08 07:21:22;;;;;;;7.47;4.28;;;5.10;99.90;;;;;;6218377;23;20004;-89
2021/05/08 07:23:47;;;;;;;7.88;4.57;;;5.10;99.90;;;;;;6218988;23;19996;-90
2021/05/08 07:26:14;;;;;;;7.82;3.85;;;5.10;99.90;;;;;;6220243;23;20043;-88
2021/05/08 07:28:40;;;;;;;5.10;3.72;;;5.10;99.90;;;;;;6197363;23;20344;-89
2021/05/08 07:31:06;;;;;;;7.35;4.20;;;5.10;99.90;;;;;;6223197;23;20083;-89
2021/05/08 07:33:31;;;;;;;6.85;4.07;;;5.10;99.90;;;;;;6224808;23;20000;-94
2021/05/08 07:35:57;;;;;;;8.27;4.35;;;5.10;99.90;;;;;;6238880;23;20008;-93
2021/05/08 07:38:23;;;;;;;5.50;3.60;;;5.10;99.90;;;;;;6241647;23;19997;-92
2021/05/08 07:40:50;;;;;;;5.50;4.15;;;5.10;99.90;;;;;;6242160;23;19999;-92
2021/05/08 07:43:20;;;;;;;6.43;3.90;;;5.10;99.90;;;;;;6241754;23;20005;-94
2021/05/08 07:45:46;;;;;;;7.67;4.10;;;5.20;99.90;;;;;;6235687;23;20040;-94
2021/05/08 07:48:13;;;;;;;5.95;4.00;;;5.20;99.90;;;;;;6234282;23;20005;-94
2021/05/08 07:50:38;;;;;;;5.35;4.03;;;5.20;99.90;;;;;;6234704;23;20001;-93
2021/05/08 07:53:04;;;;;;;6.35;4.35;;;5.20;99.90;;;;;;6240164;23;20054;-94
2021/05/08 07:55:30;;;;;;;8.93;3.90;;;5.20;99.90;;;;;;6239814;23;20004;-93
2021/05/08 07:57:56;;;;;;;5.32;3.80;;;5.20;99.90;;;;;;6239625;23;20005;-93
2021/05/08 08:00:22;;;;;;;4.47;3.63;;;5.20;99.90;;;;;;6240756;23;20008;-93
2021/05/08 08:02:49;;;;;;;5.22;3.42;;;5.20;99.90;;;;;;6236742;23;20008;-93
2021/05/08 08:05:16;;;;;;;5.25;3.97;;;5.20;99.90;;;;;;6211797;23;20039;-96
2021/05/08 08:07:41;;;;;;;5.05;3.63;;;5.20;99.90;;;;;;6223520;23;20459;-93
2021/05/08 08:10:08;;;;;;;5.22;3.67;;;5.20;99.90;;;;;;6225098;23;20009;-91
2021/05/08 08:12:34;;;;;;;3.92;3.13;;;5.20;99.90;;;;;;6226164;23;20020;-92
2021/05/08 08:15:00;;;;;;;3.80;3.08;;;5.20;99.90;;;;;;6223867;23;20005;-96
2021/05/08 08:17:28;;;;;;;4.10;3.05;;;5.30;99.90;;;;;;6220084;23;20043;-94
2021/05/08 08:19:53;;;;;;;3.53;3.00;;;5.20;99.90;;;;;;6221830;23;20012;-92
2021/05/08 08:22:19;;;;;;;3.60;2.97;;;5.20;99.90;;;;;;6223544;23;20009;-92
2021/05/08 08:24:45;;;;;;;3.92;3.00;;;5.20;99.90;;;;;;6220971;23;20013;-94
2021/05/08 08:27:11;;;;;;;4.40;3.40;;;5.20;99.90;;;;;;6219878;23;20012;-93
2021/05/08 08:29:37;;;;;;;3.70;2.63;;;5.30;99.90;;;;;;6221087;23;20012;-94
2021/05/08 08:32:03;;;;;;;3.65;2.60;;;5.30;99.90;;;;;;6218774;23;20344;-93
2021/05/08 08:34:29;;;;;;;2.25;2.00;;;5.30;99.90;;;;;;6222028;23;20015;-95
2021/05/08 08:36:55;;;;;;;3.17;2.40;;;5.40;99.90;;;;;;6234720;23;20468;-95
2021/05/08 08:39:20;;;;;;;4.00;2.42;;;5.40;99.90;;;;;;6236484;23;20039;-92
2021/05/08 08:41:46;;;;;;;2.10;1.90;;;5.40;99.90;;;;;;6234280;23;20064;-94
2021/05/08 08:44:12;;;;;;;2.05;1.88;;;5.50;99.90;;;;;;6238296;23;20004;-96
2021/05/08 08:46:43;;;;;;;2.17;1.80;;;5.50;99.90;;;;;;6238954;23;20019;-94
2021/05/08 08:49:11;;;;;;;4.80;1.50;;;5.50;99.90;;;;;;6237973;23;20004;-95
2021/05/08 08:51:38;;;;;;;1.60;1.40;;;5.50;99.90;;;;;;6239037;23;20009;-95
2021/05/08 08:54:05;;;;;;;2.10;1.40;;;5.60;99.90;;;;;;6239033;23;20023;-95
2021/05/08 08:56:38;;;;;;;1.30;1.20;;;5.70;99.90;;;;;;6225189;23;20554;-95
2021/05/08 08:59:27;;;;;;;1.33;1.15;;;5.70;99.90;;;;;;6231519;23;20068;-94
2021/05/08 09:01:56;;;;;;;1.75;1.25;;;5.70;99.90;;;;;;6221568;23;20095;-95
2021/05/08 09:04:22;;;;;;;1.55;1.40;;;5.80;99.90;;;;;;6227149;23;20091;-95
2021/05/08 09:06:48;;;;;;;2.05;1.00;;;5.80;99.90;;;;;;6226262;23;20001;-96
2021/05/08 09:09:16;;;;;;;1.13;1.02;;;5.80;99.90;;;;;;6226158;23;20004;-95
2021/05/08 09:11:54;;;;;;;1.20;1.10;;;5.80;99.90;;;;;;6227557;23;20035;-95
2021/05/08 09:14:35;;;;;;;4.20;1.17;;;5.80;99.90;;;;;;6230829;23;20012;-96
2021/05/08 09:17:17;;;;;;;3.47;1.30;;;5.80;99.90;;;;;;6230087;23;20004;-95
2021/05/08 09:19:45;;;;;;;1.00;0.95;;;5.90;99.90;;;;;;6235756;23;20004;-94
2021/05/08 09:22:37;;;;;;;2.17;1.15;;;5.90;99.90;;;;;;6232920;23;20004;-95
2021/05/08 09:25:19;;;;;;;1.58;1.10;;;5.90;99.90;;;;;;6230688;23;20004;-95
2021/05/08 09:27:52;;;;;;;0.93;0.80;;;5.90;99.90;;;;;;6237529;23;20015;-96
2021/05/08 09:30:22;;;;;;;1.00;0.90;;;5.90;99.90;;;;;;6225961;23;20019;-94
2021/05/08 09:32:56;;;;;;;1.30;1.20;;;6.00;99.90;;;;;;6226325;23;20020;-94
2021/05/08 09:35:23;;;;;;;1.13;1.02;;;6.00;99.90;;;;;;6226487;23;20028;-94
2021/05/08 09:37:51;;;;;;;1.35;1.17;;;6.00;99.90;;;;;;6229522;23;20021;-94
2021/05/08 09:40:25;;;;;;;1.08;0.90;;;6.10;99.90;;;;;;6235404;23;20011;-95
2021/05/08 09:42:54;;;;;;;0.95;0.93;;;6.10;99.90;;;;;;6239946;23;20057;-95
2021/05/08 09:45:21;;;;;;;0.80;0.80;;;6.20;99.90;;;;;;6233999;23;20009;-93
2021/05/08 09:47:47;;;;;;;1.00;0.80;;;6.20;99.90;;;;;;6233545;23;20012;-94
2021/05/08 09:50:18;;;;;;;1.52;1.05;;;6.30;99.90;;;;;;6235756;23;20020;-95
2021/05/08 09:52:55;;;;;;;1.10;1.00;;;6.40;99.90;;;;;;6230282;23;20012;-94
2021/05/08 09:55:23;;;;;;;2.25;1.52;;;6.40;99.90;;;;;;6219499;23;20000;-91
2021/05/08 09:58:08;;;;;;;1.73;1.35;;;6.40;99.90;;;;;;6216135;23;20436;-92
2021/05/08 10:00:41;;;;;;;1.45;1.33;;;6.50;99.90;;;;;;6215799;23;20047;-94
2021/05/08 10:03:10;;;;;;;1.67;1.38;;;6.60;99.90;;;;;;6216333;23;20091;-93
2021/05/08 10:05:37;;;;;;;1.20;1.10;;;6.60;99.90;;;;;;6216157;23;20008;-92
2021/05/08 10:08:05;;;;;;;1.17;1.08;;;6.70;99.90;;;;;;6216155;23;20360;-92
2021/05/08 10:10:31;;;;;;;1.10;1.00;;;6.80;99.90;;;;;;6216002;23;20520;-95
2021/05/08 10:12:57;;;;;;;2.47;1.13;;;6.80;99.90;;;;;;6218102;23;20012;-93
2021/05/08 10:15:24;;;;;;;1.98;1.27;;;6.80;99.90;;;;;;6216441;23;20498;-91
2021/05/08 10:17:51;;;;;;;4.00;1.70;;;6.90;99.90;;;;;;6224550;23;20038;-91
2021/05/08 10:20:19;;;;;;;1.92;1.60;;;7.00;99.90;;;;;;6226901;23;20000;-92
2021/05/08 10:22:46;;;;;;;2.03;1.48;;;7.00;99.90;;;;;;6221869;23;20019;-92
2021/05/08 10:25:13;;;;;;;1.58;1.48;;;7.10;99.90;;;;;;6222619;23;20008;-92
2021/05/08 10:27:38;;;;;;;1.70;1.60;;;7.20;99.90;;;;;;6218362;23;20012;-93
2021/05/08 10:30:08;;;;;;;1.98;1.20;;;7.20;99.90;;;;;;6217784;23;20367;-88
2021/05/08 10:32:38;;;;;;;1.73;1.48;;;7.30;99.90;;;;;;6217164;23;20055;-92
2021/05/08 10:35:05;;;;;;;2.85;1.50;;;7.40;99.90;;;;;;6216983;23;20087;-92
2021/05/08 10:37:31;;;;;;;1.95;1.38;;;7.50;99.90;;;;;;6216467;23;20028;-92
2021/05/08 10:39:58;;;;;;;1.48;1.38;;;7.60;99.90;;;;;;6216517;23;20095;-92
2021/05/08 10:42:34;;;;;;;1.30;1.20;;;7.60;99.90;;;;;;6216659;23;20381;-92
2021/05/08 10:45:02;;;;;;;1.33;1.20;;;7.60;99.90;;;;;;6215909;23;20054;-92
2021/05/08 10:48:02;;;;;;;2.03;1.38;;;7.70;99.90;;;;;;6216125;23;20419;-91
2021/05/08 10:50:38;;;;;;;1.33;1.23;;;7.70;99.90;;;;;;6232773;23;20384;-91
2021/05/08 10:53:17;;;;;;;1.30;1.10;;;7.80;99.90;;;;;;6217434;23;20013;-93
2021/05/08 10:55:57;;;;;;;1.00;1.00;;;7.90;99.90;;;;;;6216975;23;20458;-92
2021/05/08 10:58:23;;;;;;;1.42;1.08;;;8.00;99.90;;;;;;6217320;23;20008;-92
2021/05/08 11:00:51;;;;;;;1.10;1.00;;;8.00;99.90;;;;;;6217028;23;20008;-93
2021/05/08 11:03:19;;;;;;;1.35;1.20;;;8.00;99.90;;;;;;6217600;23;20079;-92
2021/05/08 11:06:03;;;;;;;1.10;1.00;;;8.00;99.90;;;;;;6215622;23;20586;-91
2021/05/08 11:08:28;;;;;;;1.83;1.17;;;8.00;99.90;;;;;;6215876;23;20072;-92
2021/05/08 11:10:55;;;;;;;1.48;1.38;;;8.10;99.90;;;;;;6215517;23;20012;-91
2021/05/08 11:13:24;;;;;;;1.35;1.25;;;8.10;99.90;;;;;;6217954;23;20044;-91
2021/05/08 11:15:49;;;;;;;1.25;1.10;;;8.20;99.90;;;;;;6224513;23;20011;-89
2021/05/08 11:18:48;;;;;;;1.30;1.20;;;8.30;99.90;;;;;;6216992;23;20008;-90
2021/05/08 11:21:14;;;;;;;2.22;1.30;;;8.30;99.90;;;;;;6166917;23;20145;-89
2021/05/08 11:23:44;;;;;;;1.38;1.08;;;8.30;99.90;;;;;;6216485;23;20001;-89
2021/05/08 11:26:22;;;;;;;1.33;1.13;;;8.40;99.90;;;;;;6215342;23;20343;-90
2021/05/08 11:28:54;;;;;;;1.17;1.08;;;8.50;99.90;;;;;;6215019;23;20000;-89
2021/05/08 11:31:24;;;;;;;1.63;1.00;;;8.50;99.90;;;;;;6214530;23;20044;-93
2021/05/08 11:33:51;;;;;;;1.27;1.17;;;8.60;99.90;;;;;;6213893;23;20008;-91
2021/05/08 11:36:17;;;;;;;4.10;2.88;;;8.70;99.90;;;;;;6215223;23;19997;-90
2021/05/08 11:38:43;;;;;;;3.03;2.28;;;8.70;99.90;;;;;;6215308;23;20015;-93
2021/05/08 11:41:22;;;;;;;2.42;2.22;;;8.80;99.90;;;;;;6213993;23;20024;-92
2021/05/08 11:43:52;;;;;;;2.20;2.00;;;8.80;99.90;;;;;;6214860;23;20005;-93
2021/05/08 11:46:23;;;;;;;2.50;2.30;;;8.80;99.90;;;;;;6213941;23;20027;-94
2021/05/08 11:48:52;;;;;;;1.70;1.50;;;8.80;99.90;;;;;;6214029;23;20015;-93
2021/05/08 11:51:18;;;;;;;1.30;1.20;;;8.90;99.90;;;;;;6214399;23;20040;-93
2021/05/08 11:53:43;;;;;;;1.70;1.60;;;8.90;99.90;;;;;;6215561;23;20012;-91
2021/05/08 11:56:09;;;;;;;2.70;2.25;;;9.00;99.90;;;;;;6213906;23;20075;-90
2021/05/08 11:58:35;;;;;;;6.68;4.80;;;9.10;99.90;;;;;;6214779;23;20054;-93
2021/05/08 12:01:00;;;;;;;6.30;3.85;;;9.10;99.90;;;;;;6218271;23;20010;-93
2021/05/08 12:03:28;;;;;;;4.07;3.67;;;9.10;99.90;;;;;;6218364;23;20007;-95
2021/05/08 12:05:54;;;;;;;4.38;3.67;;;9.10;99.90;;;;;;6217220;23;20012;-94
2021/05/08 12:08:24;;;;;;;6.35;4.82;;;9.20;99.90;;;;;;6219973;23;20108;-92
2021/05/08 12:10:51;;;;;;;5.47;3.80;;;9.30;99.90;;;;;;6218623;23;20008;-92
2021/05/08 12:13:17;;;;;;;3.58;3.20;;;9.30;99.90;;;;;;6219530;23;20009;-95
2021/05/08 12:15:50;;;;;;;12.38;5.95;;;9.30;99.90;;;;;;6219549;23;20014;-94
2021/05/08 12:18:18;;;;;;;4.97;4.35;;;9.30;99.90;;;;;;6218182;23;20005;-93
2021/05/08 12:20:46;;;;;;;5.00;4.45;;;9.40;99.90;;;;;;6218844;23;20004;-94
2021/05/08 12:23:19;;;;;;;4.95;4.25;;;9.50;99.90;;;;;;6216960;23;20043;-94
2021/05/08 12:26:07;;;;;;;4.90;4.18;;;9.50;99.90;;;;;;6216642;23;20068;-94
2021/05/08 12:28:34;;;;;;;4.28;3.83;;;9.60;99.90;;;;;;6217058;23;20008;-94
2021/05/08 12:31:23;;;;;;;5.32;3.88;;;9.60;99.90;;;;;;6217089;23;20340;-91
2021/05/08 12:33:50;;;;;;;4.30;3.20;;;9.60;99.90;;;;;;6217052;23;20016;-93
2021/05/08 12:36:22;;;;;;;5.05;3.70;;;9.60;99.90;;;;;;6215867;23;20039;-91
2021/05/08 12:38:49;;;;;;;4.45;4.05;;;9.70;99.90;;;;;;6216122;23;20067;-93
2021/05/08 12:41:34;;;;;;;3.78;3.42;;;9.70;99.90;;;;;;6218111;23;20009;-94
2021/05/08 12:44:11;;;;;;;7.18;2.95;;;9.70;99.90;;;;;;6217134;23;20001;-93
2021/05/08 12:47:19;;;;;;;3.10;2.80;;;9.80;99.90;;;;;;6217241;23;20376;-92
2021/05/08 12:50:12;;;;;;;3.45;3.00;;;9.80;99.90;;;;;;6218181;23;20424;-93
2021/05/08 12:52:42;;;;;;;3.30;2.80;;;9.80;99.90;;;;;;6217027;23;20091;-92
2021/05/08 12:55:32;;;;;;;3.85;3.10;;;9.80;99.90;;;;;;6219759;23;20510;-94
2021/05/08 12:58:08;;;;;;;3.90;2.80;;;9.80;99.90;;;;;;6225464;23;20032;-94
2021/05/08 13:00:39;;;;;;;3.85;3.10;;;9.80;99.90;;;;;;6218899;23;20001;-94
2021/05/08 13:03:18;;;;;;;;;;;9.80;99.90;;;;;;6219567;23;20031;-95